Time;durP1;ratioP1;P1;durP2;ratioP2;P2;SDS_P1;SDS_P2;PMS_P1;PMS_P2;Temp;Humidity;BMP_temperature;BMP_pressure;BME280_temperature;BME280_humidity;BME280_pressure;Samples;Min_cycle;Max_cycle;Signal;HPM_P1;HPM_P2
2022/08/26 00:00:31;;;;;;;9.73;7.50;;;;;;;23.06;48.38;100490.47;1717459;83;20972;-77
2022/08/26 00:02:58;;;;;;;8.37;6.53;;;;;;;23.04;48.31;100484.59;1723212;83;21007;-78
2022/08/26 00:05:26;;;;;;;14.53;7.70;;;;;;;23.02;48.13;100481.41;1715712;83;21101;-78
2022/08/26 00:07:54;;;;;;;11.17;6.93;;;;;;;23.01;48.32;100481.77;1706813;83;21019;-77
2022/08/26 00:10:20;;;;;;;12.57;7.57;;;;;;;22.98;48.01;100491.41;1735872;82;21567;-75
2022/08/26 00:12:47;;;;;;;12.03;7.83;;;;;;;22.97;47.86;100485.73;1728360;82;21030;-76
2022/08/26 00:15:18;;;;;;;8.90;7.23;;;;;;;22.95;47.85;100482.55;1730997;82;20948;-75
2022/08/26 00:17:48;;;;;;;11.00;7.65;;;;;;;22.92;48.12;100479.12;1744109;81;21403;-78
2022/08/26 00:20:19;;;;;;;10.33;7.47;;;;;;;22.89;48.19;100477.87;1740177;81;21093;-77
2022/08/26 00:22:45;;;;;;;12.93;7.75;;;;;;;22.84;47.97;100477.32;1733160;81;21556;-78
2022/08/26 00:25:12;;;;;;;10.77;7.90;;;;;;;22.79;48.19;100472.88;1734825;82;21023;-78
2022/08/26 00:27:39;;;;;;;9.83;7.47;;;;;;;22.73;48.63;100476.97;1728627;82;20976;-79
2022/08/26 00:30:10;;;;;;;10.13;7.13;;;;;;;22.67;48.51;100478.32;1714296;81;21103;-76
2022/08/26 00:32:36;;;;;;;8.97;7.20;;;;;;;22.63;48.38;100478.21;1709128;83;21023;-77
2022/08/26 00:35:04;;;;;;;10.93;7.50;;;;;;;22.65;48.44;100473.80;1710135;83;20974;-77
2022/08/26 00:37:31;;;;;;;9.80;7.20;;;;;;;22.63;48.35;100474.13;1706319;84;21048;-75
2022/08/26 00:39:58;;;;;;;9.10;7.20;;;;;;;22.59;48.26;100473.23;1729119;83;21502;-77
2022/08/26 00:42:26;;;;;;;9.07;7.30;;;;;;;22.56;48.74;100471.19;1729733;82;21623;-77
2022/08/26 00:44:53;;;;;;;10.27;6.83;;;;;;;22.56;48.60;100472.55;1711171;82;20987;-79
2022/08/26 00:47:28;;;;;;;11.77;7.57;;;;;;;22.56;48.45;100471.19;1726696;82;21067;-76
2022/08/26 00:49:55;;;;;;;9.57;7.83;;;;;;;22.56;48.36;100469.82;1730040;82;21000;-78
2022/08/26 00:52:22;;;;;;;10.43;7.17;;;;;;;22.54;48.35;100467.20;1723400;82;21305;-77
2022/08/26 00:55:21;;;;;;;11.13;7.53;;;;;;;22.52;48.17;100464.84;1695487;81;21815;-77
2022/08/26 00:57:48;;;;;;;8.93;6.93;;;;;;;22.52;48.18;100464.05;1715413;82;21094;-77
2022/08/26 01:00:20;;;;;;;12.17;7.60;;;;;;;22.47;48.16;100465.05;1717108;82;21435;-78
2022/08/26 01:02:47;;;;;;;10.63;7.00;;;;;;;22.51;48.00;100463.26;1727584;82;21011;-77
2022/08/26 01:05:14;;;;;;;8.57;6.53;;;;;;;22.49;47.94;100465.52;1727400;82;20951;-77
2022/08/26 01:07:41;;;;;;;8.70;7.13;;;;;;;22.48;47.90;100460.64;1722984;81;21145;-77
2022/08/26 01:10:15;;;;;;;10.40;7.17;;;;;;;22.48;47.72;100459.28;1726975;82;20940;-77
2022/08/26 01:12:46;;;;;;;10.40;7.20;;;;;;;22.49;47.64;100449.19;1726593;82;21024;-78
2022/08/26 01:15:21;;;;;;;8.50;7.08;;;;;;;22.47;47.69;100452.80;1714672;83;21019;-78
2022/08/26 01:17:48;;;;;;;10.13;7.47;;;;;;;22.38;47.95;100453.50;1728130;82;21086;-77
2022/08/26 01:20:35;;;;;;;9.17;7.57;;;;;;;22.34;48.04;100452.02;1733912;81;21239;-77
2022/08/26 01:23:05;;;;;;;9.73;6.83;;;;;;;22.34;47.87;100454.74;1699774;82;21687;-76
2022/08/26 01:25:36;;;;;;;;;;;;;;;22.28;47.94;100450.65;1724265;82;20952;-76
2022/08/26 01:28:08;;;;;;;9.23;7.10;;;;;;;22.34;47.83;100455.28;1736110;82;20167;-77
2022/08/26 01:30:36;;;;;;;9.33;7.10;;;;;;;22.28;47.96;100451.19;1731894;82;21570;-78
2022/08/26 01:33:04;;;;;;;10.13;6.80;;;;;;;22.23;47.96;100450.86;1707317;82;21580;-78
2022/08/26 01:35:31;;;;;;;9.50;7.23;;;;;;;22.20;47.99;100455.61;1718487;82;21091;-78
2022/08/26 01:37:59;;;;;;;8.73;7.17;;;;;;;22.19;47.92;100448.02;1726249;81;21572;-78
2022/08/26 01:40:30;;;;;;;9.17;7.10;;;;;;;22.15;48.10;100447.66;1720849;82;21144;-77
2022/08/26 01:42:59;;;;;;;10.63;7.10;;;;;;;22.13;48.06;100452.62;1721172;81;21050;-77
2022/08/26 01:45:29;;;;;;;11.33;7.53;;;;;;;22.06;48.08;100451.82;1724110;83;21195;-78
2022/08/26 01:47:57;;;;;;;10.80;7.90;;;;;;;22.06;47.99;100453.18;1725509;82;20999;-78
2022/08/26 01:50:30;;;;;;;9.63;7.00;;;;;;;21.99;48.12;100451.02;1718053;83;21585;-78
2022/08/26 01:52:59;;;;;;;11.00;7.07;;;;;;;21.98;48.14;100448.61;1724815;81;21071;-77
2022/08/26 01:55:25;;;;;;;10.17;6.90;;;;;;;22.03;48.22;100448.41;1712095;82;21054;-79
2022/08/26 01:57:54;;;;;;;7.77;6.53;;;;;;;21.99;48.29;100450.22;1731594;81;21122;-77
2022/08/26 02:00:21;;;;;;;9.43;6.50;;;;;;;21.96;48.16;100442.16;1714708;82;21070;-78
2022/08/26 02:02:49;;;;;;;10.57;7.43;;;;;;;21.90;48.36;100442.14;1728318;82;21047;-77
2022/08/26 02:05:19;;;;;;;9.17;6.70;;;;;;;21.87;48.47;100446.10;1721641;82;20971;-78
2022/08/26 02:07:46;;;;;;;9.43;6.70;;;;;;;21.90;48.27;100443.50;1730073;81;21047;-76
2022/08/26 02:10:13;;;;;;;9.57;6.93;;;;;;;21.82;48.45;100446.33;1718618;81;21661;-78
2022/08/26 02:12:41;;;;;;;8.97;6.90;;;;;;;21.77;48.47;100450.83;1706758;81;21106;-76
2022/08/26 02:15:09;;;;;;;11.00;6.87;;;;;;;21.77;48.52;100446.75;1723415;81;21094;-77
2022/08/26 02:17:42;;;;;;;15.13;8.30;;;;;;;21.78;48.58;100445.64;1736915;81;21050;-77
2022/08/26 02:20:13;;;;;;;10.23;7.40;;;;;;;21.71;49.36;100446.72;1731953;81;21050;-78
2022/08/26 02:22:40;;;;;;;13.33;7.57;;;;;;;21.69;49.67;100449.00;1723386;81;21208;-78
2022/08/26 02:25:30;;;;;;;11.47;7.17;;;;;;;21.67;49.91;100444.45;1735447;81;21689;-78
2022/08/26 02:27:57;;;;;;;12.23;7.20;;;;;;;21.64;50.04;100450.55;1735930;81;21097;-76
2022/08/26 02:30:27;;;;;;;10.00;6.90;;;;;;;21.61;50.15;100447.71;1723830;81;21051;-78
2022/08/26 02:32:54;;;;;;;8.27;6.50;;;;;;;21.58;49.54;100445.66;1728192;81;21022;-77
2022/08/26 02:35:21;;;;;;;12.20;7.60;;;;;;;21.52;49.59;100446.45;1725009;81;21325;-78
2022/08/26 02:37:49;;;;;;;9.93;6.77;;;;;;;21.48;49.36;100448.22;1736985;81;21090;-77
2022/08/26 02:40:20;;;;;;;9.63;6.30;;;;;;;21.44;49.38;100444.02;1725227;81;21077;-77
2022/08/26 02:42:47;;;;;;;9.40;6.40;;;;;;;21.44;49.30;100447.30;1732797;81;20970;-76
2022/08/26 02:45:13;;;;;;;10.60;7.23;;;;;;;21.41;49.20;100441.96;1731893;81;21133;-76
2022/08/26 02:47:40;;;;;;;10.63;7.10;;;;;;;21.44;49.08;100438.58;1723402;82;21298;-76
2022/08/26 02:50:07;;;;;;;10.27;6.77;;;;;;;21.43;49.23;100445.72;1725309;81;21003;-76
2022/08/26 02:52:34;;;;;;;10.70;7.03;;;;;;;21.41;49.19;100442.53;1731188;81;21525;-75
2022/08/26 02:55:02;;;;;;;9.87;6.80;;;;;;;21.38;49.11;100451.34;1726533;81;21129;-76
2022/08/26 02:57:30;;;;;;;10.53;6.60;;;;;;;21.37;49.17;100453.84;1734267;81;21074;-77
2022/08/26 02:59:58;;;;;;;8.30;6.57;;;;;;;21.36;49.03;100461.20;1733499;81;21123;-76
2022/08/26 03:02:25;;;;;;;9.30;6.93;;;;;;;21.35;49.18;100464.23;1692110;81;21205;-75
2022/08/26 03:04:51;;;;;;;9.37;6.90;;;;;;;21.32;49.08;100464.30;1729612;81;21134;-76
2022/08/26 03:07:19;;;;;;;10.20;7.50;;;;;;;21.30;49.20;100463.84;1725235;81;21023;-75
2022/08/26 03:09:45;;;;;;;11.07;6.83;;;;;;;21.32;49.05;100468.37;1734221;81;21106;-74
2022/08/26 03:12:12;;;;;;;13.23;6.90;;;;;;;21.29;49.02;100466.34;1731249;81;21129;-76
2022/08/26 03:14:39;;;;;;;10.97;6.83;;;;;;;21.27;49.22;100476.73;1731037;81;21153;-77
2022/08/26 03:17:06;;;;;;;11.57;6.97;;;;;;;21.27;49.30;100478.09;1729815;80;21063;-75
2022/08/26 03:19:33;;;;;;;11.43;7.27;;;;;;;21.25;49.43;100469.47;1727086;80;21094;-76
2022/08/26 03:22:01;;;;;;;9.83;7.43;;;;;;;21.24;49.48;100470.03;1732896;81;21126;-77
2022/08/26 03:24:27;;;;;;;11.13;7.00;;;;;;;21.22;49.94;100476.38;1698454;82;21104;-75
2022/08/26 03:26:54;;;;;;;9.87;7.10;;;;;;;21.20;49.71;100477.83;1727998;81;21090;-76
2022/08/26 03:32:07;;;;;;;12.13;6.80;;;;;;;21.16;49.58;100474.98;1727650;80;21054;-77
2022/08/26 03:34:34;;;;;;;8.43;6.70;;;;;;;21.15;49.38;100478.80;1732777;81;21105;-77
2022/08/26 03:37:01;;;;;;;9.23;6.47;;;;;;;21.15;49.39;100472.01;1722264;82;21069;-77
2022/08/26 03:39:28;;;;;;;11.27;6.27;;;;;;;21.13;49.45;100475.63;1723930;82;21561;-77
2022/08/26 03:41:54;;;;;;;8.97;7.03;;;;;;;21.16;49.39;100469.55;1733461;81;21078;-76
2022/08/26 03:44:21;;;;;;;10.60;6.43;;;;;;;21.13;49.63;100472.92;1721670;81;21521;-76
2022/08/26 03:46:48;;;;;;;13.13;7.07;;;;;;;21.14;49.84;100462.84;1732065;81;21031;-76
2022/08/26 03:49:15;;;;;;;8.93;6.80;;;;;;;21.14;49.97;100463.64;1724979;80;21302;-77
2022/08/26 03:51:42;;;;;;;10.50;6.77;;;;;;;21.15;49.76;100466.58;1718489;81;21063;-76
2022/08/26 03:54:11;;;;;;;11.70;7.07;;;;;;;21.18;49.60;100465.92;1731542;81;21118;-75
2022/08/26 03:56:39;;;;;;;11.60;7.00;;;;;;;21.21;49.73;100473.41;1727797;81;21043;-75
2022/08/26 03:59:06;;;;;;;10.97;7.30;;;;;;;21.24;49.52;100470.60;1730136;81;21094;-76
2022/08/26 04:01:34;;;;;;;10.00;6.80;;;;;;;21.28;49.51;100474.23;1732166;81;21416;-77
2022/08/26 04:04:00;;;;;;;8.77;7.20;;;;;;;21.30;49.38;100470.07;1726904;81;21098;-77
2022/08/26 04:06:33;;;;;;;10.07;7.00;;;;;;;21.32;49.42;100471.09;1731029;81;21003;-77
2022/08/26 04:09:06;;;;;;;9.37;7.03;;;;;;;21.36;49.39;100468.56;1722969;81;21113;-77
2022/08/26 04:11:34;;;;;;;10.07;7.03;;;;;;;21.39;49.33;100457.00;1736957;81;21034;-78
2022/08/26 04:14:06;;;;;;;12.37;6.67;;;;;;;21.41;49.27;100458.83;1732619;81;21090;-77
2022/08/26 04:16:32;;;;;;;11.80;6.80;;;;;;;21.44;49.29;100448.66;1729168;81;21051;-77
2022/08/26 04:18:59;;;;;;;12.60;6.40;;;;;;;21.47;49.23;100450.14;1728906;81;21058;-77
2022/08/26 04:21:26;;;;;;;8.17;6.60;;;;;;;21.51;49.09;100451.63;1737348;80;21415;-77
2022/08/26 04:23:53;;;;;;;8.63;6.17;;;;;;;21.58;48.91;100452.45;1729337;81;21034;-77
2022/08/26 04:26:20;;;;;;;11.80;6.80;;;;;;;21.61;48.74;100457.22;1727826;81;21118;-77
2022/08/26 04:28:48;;;;;;;9.27;6.13;;;;;;;21.64;48.93;100453.27;1725337;82;21031;-77
2022/08/26 04:31:16;;;;;;;12.47;7.10;;;;;;;21.70;48.79;100453.30;1724245;82;21090;-76
2022/08/26 04:33:44;;;;;;;12.13;6.63;;;;;;;21.75;48.69;100454.47;1724788;81;21054;-76
2022/08/26 04:36:11;;;;;;;11.23;6.93;;;;;;;21.83;49.06;100453.34;1735436;81;21034;-75
2022/08/26 04:38:37;;;;;;;8.60;6.23;;;;;;;21.85;48.73;100454.61;1730787;81;21904;-76
2022/08/26 04:41:07;;;;;;;14.33;7.33;;;;;;;21.92;48.23;100450.77;1737299;81;20960;-75
2022/08/26 04:43:33;;;;;;;8.90;5.73;;;;;;;21.96;48.49;100447.60;1728282;81;21522;-75
2022/08/26 04:46:02;;;;;;;15.93;6.83;;;;;;;22.03;47.96;100448.98;1728510;81;21062;-76
2022/08/26 04:48:30;;;;;;;8.83;6.77;;;;;;;22.08;47.95;100452.29;1733382;81;21193;-77
2022/08/26 04:50:58;;;;;;;12.20;6.33;;;;;;;22.14;47.39;100450.91;1705431;81;21138;-76
2022/08/26 04:53:27;;;;;;;11.03;6.30;;;;;;;22.21;47.30;100450.39;1736312;81;21082;-77
2022/08/26 04:55:53;;;;;;;9.90;6.50;;;;;;;22.26;47.04;100452.11;1720581;81;21168;-76
2022/08/26 04:58:21;;;;;;;11.00;6.67;;;;;;;22.30;46.90;100445.64;1725921;81;21018;-76
2022/08/26 05:00:48;;;;;;;13.13;6.80;;;;;;;22.37;46.70;100448.59;1735607;81;21561;-76
2022/08/26 05:03:16;;;;;;;10.77;6.57;;;;;;;22.44;46.58;100448.85;1733457;81;21168;-76
2022/08/26 05:05:44;;;;;;;10.27;6.53;;;;;;;22.52;46.76;100451.80;1731106;81;21014;-76
2022/08/26 05:08:15;;;;;;;11.23;6.27;;;;;;;22.58;46.31;100451.80;1732696;81;21468;-77
2022/08/26 05:10:50;;;;;;;12.07;6.12;;;;;;;22.63;46.09;100449.63;1734862;82;20992;-76
2022/08/26 05:13:18;;;;;;;9.83;6.10;;;;;;;22.69;46.35;100452.92;1738710;81;21042;-76
2022/08/26 05:15:46;;;;;;;9.00;6.00;;;;;;;22.75;46.06;100452.13;1726480;81;21567;-76
2022/08/26 05:18:13;;;;;;;10.43;6.23;;;;;;;22.81;46.29;100457.01;1705633;83;21120;-75
2022/08/26 05:20:45;;;;;;;11.40;6.20;;;;;;;22.85;45.29;100457.12;1682035;83;21605;-75
2022/08/26 05:23:12;;;;;;;9.93;6.00;;;;;;;22.93;45.30;100458.94;1713473;81;21054;-75
2022/08/26 05:25:41;;;;;;;11.53;6.50;;;;;;;23.02;45.61;100451.44;1718288;82;21607;-75
2022/08/26 05:28:10;;;;;;;7.97;5.50;;;;;;;23.11;45.40;100454.83;1735791;81;21093;-74
2022/08/26 05:30:37;;;;;;;9.63;5.60;;;;;;;23.21;44.50;100450.84;1745623;80;20975;-74
2022/08/26 05:33:07;;;;;;;8.20;5.47;;;;;;;23.29;44.47;100455.91;1741871;81;20991;-74
2022/08/26 05:35:37;;;;;;;9.47;5.83;;;;;;;23.40;44.98;100459.77;1726525;83;21078;-75
2022/08/26 05:38:10;;;;;;;9.93;5.90;;;;;;;23.52;44.78;100457.55;1711089;83;21663;-76
2022/08/26 05:40:41;;;;;;;9.73;5.60;;;;;;;23.59;44.64;100455.83;1725083;82;21898;-75
2022/08/26 05:43:12;;;;;;;;;;;;;;;23.69;44.41;100455.11;1723816;82;21034;-76
2022/08/26 05:45:48;;;;;;;7.92;5.78;;;;;;;23.75;43.95;100445.55;1712564;82;20477;-73
2022/08/26 05:48:22;;;;;;;10.40;5.50;;;;;;;23.82;44.08;100446.55;1755234;81;21563;-76
2022/08/26 05:50:55;;;;;;;10.67;5.67;;;;;;;23.92;43.58;100449.31;1739788;82;21030;-74
2022/08/26 05:53:26;;;;;;;9.73;5.77;;;;;;;24.01;43.78;100450.52;1695853;83;21143;-75
2022/08/26 05:56:09;;;;;;;12.63;5.60;;;;;;;24.10;43.49;100450.58;1715676;81;20989;-74
2022/08/26 05:58:55;;;;;;;8.53;5.13;;;;;;;24.22;43.70;100452.99;1730116;81;21015;-75
2022/08/26 06:01:32;;;;;;;9.17;5.30;;;;;;;24.35;43.16;100454.52;1726479;82;21514;-74
2022/08/26 06:04:07;;;;;;;8.70;5.07;;;;;;;24.51;43.22;100454.52;1725764;83;21636;-76
2022/08/26 06:06:54;;;;;;;9.73;5.30;;;;;;;24.60;42.27;100453.77;1724871;81;21837;-74
2022/08/26 06:09:21;;;;;;;8.80;4.93;;;;;;;24.72;42.07;100454.25;1713497;82;21032;-75
2022/08/26 06:12:06;;;;;;;7.20;4.63;;;;;;;24.86;41.35;100447.73;1697386;83;21089;-74
2022/08/26 06:14:33;;;;;;;9.70;5.10;;;;;;;24.96;40.15;100452.64;1683180;81;21057;-75
2022/08/26 06:17:16;;;;;;;10.53;5.20;;;;;;;25.10;39.45;100441.80;1700327;83;21162;-86
2022/08/26 06:19:49;;;;;;;10.90;5.53;;;;;;;25.22;40.27;100448.53;1679438;81;22069;-85
2022/08/26 07:15:17;;;;;;;7.83;4.27;;;;;;;27.48;35.71;100449.75;1705590;82;20999;-87
2022/08/26 07:17:59;;;;;;;9.37;4.60;;;;;;;27.69;35.28;100449.78;1715694;82;21020;-86
2022/08/26 07:20:45;;;;;;;9.60;4.40;;;;;;;27.82;35.60;100445.62;1689417;83;21026;-87
2022/08/26 07:36:50;;;;;;;8.77;3.93;;;;;;;28.36;32.27;100428.25;1759559;81;20843;-79
2022/08/26 07:39:35;;;;;;;10.37;4.00;;;;;;;28.52;32.90;100430.94;1707351;81;21124;-80
2022/08/26 07:42:05;;;;;;;8.87;4.00;;;;;;;28.61;32.20;100433.37;1719014;82;21018;-91
2022/08/26 07:44:32;;;;;;;9.20;3.70;;;;;;;28.68;31.74;100429.87;1727465;83;21236;-88
2022/08/26 07:46:59;;;;;;;6.63;3.20;;;;;;;28.79;31.96;100420.31;1731990;82;21552;-91
2022/08/26 07:49:26;;;;;;;8.93;4.40;;;;;;;28.90;31.82;100426.67;1723845;82;20948;-88
2022/08/26 07:51:53;;;;;;;12.77;4.20;;;;;;;29.01;31.37;100415.75;1732877;82;21149;-88
2022/08/26 07:54:20;;;;;;;11.77;4.17;;;;;;;29.11;31.12;100411.67;1731553;83;20995;-86
2022/08/26 07:56:47;;;;;;;8.97;3.63;;;;;;;29.21;31.03;100403.26;1732035;82;21112;-90
2022/08/26 07:59:16;;;;;;;11.83;4.20;;;;;;;29.32;30.64;100405.48;1732177;83;20952;-88
2022/08/26 08:01:44;;;;;;;8.57;3.43;;;;;;;29.48;30.05;100401.56;1731947;83;22392;-89
2022/08/26 08:04:14;;;;;;;10.20;4.37;;;;;;;29.60;30.42;100399.27;1731751;82;20987;-88
2022/08/26 08:06:40;;;;;;;9.50;3.57;;;;;;;29.70;29.54;100403.22;1731492;82;21004;-87
2022/08/26 08:09:07;;;;;;;9.30;3.43;;;;;;;29.72;28.89;100402.25;1731424;82;21527;-83
2022/08/26 08:11:33;;;;;;;7.27;3.43;;;;;;;29.73;28.40;100396.94;1710826;83;21588;-87
2022/08/26 08:14:00;;;;;;;7.70;3.37;;;;;;;29.73;28.00;100398.91;1710932;83;21543;-90
2022/08/26 08:16:28;;;;;;;10.50;4.03;;;;;;;29.75;27.81;100391.05;1731516;83;20987;-90
2022/08/26 08:18:55;;;;;;;8.63;3.13;;;;;;;29.79;28.21;100389.08;1731307;83;21231;-87
2022/08/26 08:21:24;;;;;;;11.43;3.33;;;;;;;29.95;27.92;100378.47;1731470;82;21736;-88
2022/08/26 08:23:52;;;;;;;10.50;3.33;;;;;;;30.02;27.87;100379.06;1731366;83;21015;-89
2022/08/26 08:26:21;;;;;;;5.37;2.97;;;;;;;30.15;27.97;100384.37;1731571;83;21031;-89
2022/08/26 08:28:49;;;;;;;9.10;4.03;;;;;;;30.28;27.35;100375.14;1731090;83;21090;-88
2022/08/26 08:31:23;;;;;;;9.03;3.00;;;;;;;30.40;26.87;100384.94;1732086;82;20966;-85
2022/08/26 08:33:54;;;;;;;9.10;3.43;;;;;;;30.47;25.85;100374.72;1732468;83;21247;-81
2022/08/26 08:36:21;;;;;;;8.73;3.47;;;;;;;30.53;25.71;100375.08;1731573;82;21079;-82
2022/08/26 08:38:48;;;;;;;8.63;2.87;;;;;;;30.59;25.94;100367.38;1731073;82;21466;-84
2022/08/26 08:41:39;;;;;;;13.73;4.57;;;;;;;30.71;26.51;100362.04;1731318;83;21062;-84
2022/08/26 08:44:17;;;;;;;6.50;2.80;;;;;;;30.82;25.84;100367.53;1731491;83;20888;-85
2022/08/26 08:46:46;;;;;;;7.47;2.77;;;;;;;30.93;25.38;100367.48;1731309;82;21253;-83
2022/08/26 08:49:12;;;;;;;9.73;3.10;;;;;;;31.05;26.06;100369.80;1702430;84;20999;-89
2022/08/26 08:51:48;;;;;;;7.80;2.70;;;;;;;31.10;25.25;100359.75;1702370;84;20983;-90
2022/08/26 08:54:15;;;;;;;7.73;3.10;;;;;;;31.21;25.54;100358.30;1700818;84;21011;-81
2022/08/26 08:57:07;;;;;;;9.47;2.80;;;;;;;31.30;23.88;100355.30;1720507;82;20911;-88
2022/08/26 08:59:35;;;;;;;8.03;2.40;;;;;;;31.40;23.84;100350.92;1744658;82;21225;-87
2022/08/26 09:02:41;;;;;;;7.90;2.60;;;;;;;31.48;24.03;100348.30;1745477;82;20991;-88
2022/08/26 09:05:23;;;;;;;7.07;2.23;;;;;;;31.58;23.92;100337.59;1738121;82;21011;-87
2022/08/26 09:08:01;;;;;;;9.67;2.37;;;;;;;31.74;24.56;100346.92;1734257;82;21003;-81
2022/08/26 09:10:39;;;;;;;6.43;2.10;;;;;;;31.78;23.27;100351.03;1733968;82;21405;-84
2022/08/26 09:13:12;;;;;;;10.60;2.40;;;;;;;31.85;22.43;100348.80;1733238;82;22383;-87
2022/08/26 09:16:08;;;;;;;5.27;2.30;;;;;;;31.80;22.78;100345.90;1732728;81;21023;-84
2022/08/26 09:19:02;;;;;;;9.00;2.50;;;;;;;31.85;23.12;100353.73;1726165;81;20998;-82
2022/08/26 09:21:31;;;;;;;4.60;2.10;;;;;;;31.86;22.05;100350.40;1729571;81;21597;-80
2022/08/26 09:23:59;;;;;;;8.53;2.37;;;;;;;31.71;21.64;100349.71;1730106;81;21070;-86
2022/08/26 09:26:39;;;;;;;8.10;2.00;;;;;;;31.52;22.02;100346.31;1729918;81;21630;-88
2022/08/26 09:29:22;;;;;;;6.43;2.30;;;;;;;31.48;21.95;100342.77;1706159;82;21097;-87
2022/08/26 09:31:49;;;;;;;6.12;2.10;;;;;;;31.60;22.38;100343.50;1728259;81;21545;-85
2022/08/26 09:34:26;;;;;;;7.43;2.40;;;;;;;31.73;22.27;100349.50;1730523;81;21040;-86
2022/08/26 09:36:55;;;;;;;7.73;2.47;;;;;;;31.76;22.54;100344.55;1732164;82;21074;-91
2022/08/26 09:39:30;;;;;;;6.37;2.50;;;;;;;31.60;21.84;100333.84;1739462;81;21135;-86
2022/08/26 09:42:13;;;;;;;6.47;2.30;;;;;;;31.42;22.43;100340.25;1722278;81;20987;-88
2022/08/26 09:45:05;;;;;;;9.97;2.47;;;;;;;31.40;22.52;100335.75;1707545;82;21121;-88
2022/08/26 09:47:36;;;;;;;6.77;2.63;;;;;;;31.54;23.66;100340.38;1728582;83;21050;-89
2022/08/26 09:50:28;;;;;;;7.22;2.50;;;;;;;31.69;23.00;100337.70;1731536;81;20935;-90
2022/08/26 09:53:08;;;;;;;7.63;2.33;;;;;;;31.77;23.04;100339.80;1727146;81;21086;-85
2022/08/26 09:55:37;;;;;;;6.53;2.27;;;;;;;31.88;23.24;100332.23;1731237;82;21054;-85
2022/08/26 09:58:07;;;;;;;8.00;2.20;;;;;;;31.91;22.43;100338.92;1731104;82;21015;-87
2022/08/26 10:00:38;;;;;;;6.57;2.33;;;;;;;31.88;22.92;100328.09;1728715;81;21097;-89
2022/08/26 10:03:10;;;;;;;7.17;2.10;;;;;;;31.87;22.93;100330.64;1735420;81;21051;-88
2022/08/26 10:05:44;;;;;;;6.23;2.20;;;;;;;31.90;22.82;100329.86;1721047;82;21209;-84
2022/08/26 10:08:22;;;;;;;6.30;2.20;;;;;;;31.85;22.14;100335.00;1743027;81;21033;-90
2022/08/26 10:10:49;;;;;;;6.67;2.10;;;;;;;31.86;22.87;100335.98;1736958;81;21462;-83
2022/08/26 10:13:33;;;;;;;5.00;2.10;;;;;;;31.98;22.34;100331.38;1719146;82;20963;-89
2022/08/26 10:16:21;;;;;;;6.23;2.17;;;;;;;32.10;21.58;100331.45;1739322;81;21093;-85
2022/08/26 10:19:01;;;;;;;6.17;2.33;;;;;;;32.08;22.01;100334.42;1734920;81;21737;-89
2022/08/26 10:21:33;;;;;;;5.30;2.00;;;;;;;32.11;21.38;100333.61;1734489;81;20988;-82
2022/08/26 10:24:01;;;;;;;5.57;2.00;;;;;;;32.14;21.51;100330.03;1734112;81;21050;-83
2022/08/26 10:26:57;;;;;;;5.67;1.90;;;;;;;32.13;21.18;100327.87;1758365;81;21059;-89
2022/08/26 10:29:42;;;;;;;4.77;1.90;;;;;;;32.07;20.68;100323.97;1703964;81;20987;-85
2022/08/26 10:32:26;;;;;;;3.93;1.60;;;;;;;31.94;21.12;100329.22;1763336;80;21174;-84
2022/08/26 10:34:57;;;;;;;5.93;1.70;;;;;;;31.99;20.09;100321.89;1731771;81;21133;-85
2022/08/26 10:37:28;;;;;;;5.67;1.83;;;;;;;32.05;19.17;100328.34;1726011;81;21347;-81
2022/08/26 10:40:13;;;;;;;5.13;1.57;;;;;;;32.20;19.82;100321.48;1708236;83;20996;-82
2022/08/26 10:43:05;;;;;;;4.33;1.83;;;;;;;32.36;19.22;100326.45;1698635;83;20962;-89
2022/08/26 10:45:36;;;;;;;6.17;2.10;;;;;;;32.45;19.42;100316.51;1717306;81;21833;-84
2022/08/26 10:48:09;;;;;;;4.60;1.80;;;;;;;32.52;19.39;100314.86;1721116;81;21039;-81
2022/08/26 10:50:40;;;;;;;6.60;1.63;;;;;;;32.58;20.16;100315.98;1755594;80;21590;-84
2022/08/26 10:53:20;;;;;;;8.37;1.97;;;;;;;32.70;18.53;100309.88;1736770;81;20967;-83
2022/08/26 10:56:26;;;;;;;6.08;1.70;;;;;;;32.75;17.54;100310.81;1734646;81;21386;-83
2022/08/26 10:59:14;;;;;;;5.77;2.10;;;;;;;32.70;17.53;100318.95;1736583;81;21880;-85
2022/08/26 11:02:10;;;;;;;4.73;1.90;;;;;;;32.68;17.99;100314.45;1740650;81;21049;-87
2022/08/26 11:04:52;;;;;;;3.57;1.60;;;;;;;32.66;18.49;100310.53;1649043;86;21083;-90
2022/08/26 11:07:45;;;;;;;6.17;1.55;;;;;;;32.68;18.79;100306.16;1723131;81;21149;-83
2022/08/26 11:10:21;;;;;;;3.90;1.67;;;;;;;32.73;18.70;100309.66;1729943;81;21054;-82
2022/08/26 11:12:56;;;;;;;5.67;2.00;;;;;;;32.79;18.78;100314.31;1743334;81;21178;-87
2022/08/26 11:15:28;;;;;;;5.97;1.83;;;;;;;32.74;18.03;100309.23;1746333;81;21086;-87
2022/08/26 11:18:01;;;;;;;5.33;1.87;;;;;;;32.67;18.70;100304.57;1742690;81;21728;-88
2022/08/26 11:20:39;;;;;;;5.63;1.80;;;;;;;32.58;19.14;100302.16;1740519;81;21045;-82
2022/08/26 11:23:26;;;;;;;7.23;1.60;;;;;;;32.60;19.28;100315.73;1741457;81;20960;-84
2022/08/26 11:26:13;;;;;;;5.47;1.93;;;;;;;32.66;18.67;100317.44;1741398;81;21171;-83
2022/08/26 11:28:48;;;;;;;5.37;1.70;;;;;;;32.72;19.23;100317.17;1739862;81;21142;-83
2022/08/26 11:31:29;;;;;;;5.53;1.70;;;;;;;32.83;19.27;100319.19;1746353;81;20980;-87
2022/08/26 11:34:01;;;;;;;5.30;2.20;;;;;;;32.98;19.79;100319.05;1741206;81;21066;-79
2022/08/26 11:36:48;;;;;;;5.40;1.70;;;;;;;33.09;19.27;100318.29;1740111;81;21510;-84
2022/08/26 11:39:28;;;;;;;6.20;1.60;;;;;;;33.11;19.33;100326.97;1731443;81;21185;-86
2022/08/26 11:41:59;;;;;;;6.47;1.90;;;;;;;33.13;18.70;100317.63;1738147;81;21101;-83
2022/08/26 11:44:41;;;;;;;3.87;1.30;;;;;;;33.12;19.38;100314.69;1734288;81;21478;-81
2022/08/26 11:47:09;;;;;;;;;;;;;;;33.21;19.41;100314.96;1742934;81;21042;-84
2022/08/26 11:49:36;;;;;;;5.00;1.93;;;;;;;33.23;18.62;100319.45;1741492;81;20172;-80
2022/08/26 11:52:16;;;;;;;5.37;2.30;;;;;;;33.22;18.54;100318.51;1731464;83;21116;-79
2022/08/26 11:55:06;;;;;;;5.72;1.60;;;;;;;33.20;17.95;100313.38;1731242;83;20999;-82
2022/08/26 11:57:44;;;;;;;6.50;1.87;;;;;;;33.11;18.24;100317.28;1730961;81;21064;-80
2022/08/26 12:00:25;;;;;;;7.23;2.17;;;;;;;33.12;18.90;100320.23;1728944;81;20995;-86
2022/08/26 12:02:51;;;;;;;4.08;1.90;;;;;;;33.18;19.23;100313.62;1734045;81;21042;-85
2022/08/26 12:05:32;;;;;;;6.80;2.40;;;;;;;33.29;19.84;100312.25;1731816;83;22268;-87
2022/08/26 12:08:04;;;;;;;4.67;1.70;;;;;;;33.35;19.13;100314.73;1731197;82;20939;-84
2022/08/26 12:10:32;;;;;;;6.30;2.13;;;;;;;33.37;18.52;100317.10;1734444;81;21067;-80
2022/08/26 12:13:00;;;;;;;4.47;1.80;;;;;;;33.37;18.82;100318.48;1728512;81;21054;-81
2022/08/26 12:28:11;;;;;;;5.97;2.10;;;;;;;33.80;18.93;100302.59;1752547;82;26949;-72
2022/08/26 12:30:41;;;;;;;4.53;2.25;;;;;;;33.80;19.21;100301.98;1727800;83;20884;-72
2022/08/26 12:33:11;;;;;;;6.45;2.40;;;;;;;33.83;18.72;100295.59;1728337;81;21793;-73
2022/08/26 12:35:38;;;;;;;7.70;2.50;;;;;;;33.75;18.82;100298.30;1756938;81;21053;-73
2022/08/26 12:38:07;;;;;;;4.83;2.40;;;;;;;33.66;18.93;100303.59;1757383;81;21027;-72
2022/08/26 12:40:45;;;;;;;5.47;2.22;;;;;;;33.62;18.90;100298.72;1757580;81;20911;-71
2022/08/26 12:43:18;;;;;;;6.30;2.25;;;;;;;33.52;18.86;100300.45;1724513;83;21046;-71
2022/08/26 12:45:56;;;;;;;4.80;2.08;;;;;;;33.48;19.11;100296.16;1748265;81;21151;-71
2022/08/26 12:48:31;;;;;;;5.72;2.37;;;;;;;33.39;18.40;100303.00;1756094;81;20963;-74
2022/08/26 12:50:58;;;;;;;5.10;2.35;;;;;;;33.38;18.27;100297.89;1725028;81;21501;-71
2022/08/26 12:53:27;;;;;;;3.98;2.52;;;;;;;33.38;18.94;100301.44;1757888;81;21862;-71
2022/08/26 12:56:20;;;;;;;3.50;2.10;;;;;;;33.43;19.69;100306.31;1757709;81;21051;-71
2022/08/26 12:59:04;;;;;;;10.55;2.77;;;;;;;33.44;18.62;100295.44;1725353;83;21148;-70
2022/08/26 13:01:41;;;;;;;5.12;2.20;;;;;;;33.46;18.83;100297.17;1725225;83;21066;-72
2022/08/26 13:04:34;;;;;;;5.23;2.10;;;;;;;33.47;18.57;100299.53;1757979;81;21007;-71
2022/08/26 13:07:24;;;;;;;5.07;1.90;;;;;;;33.44;18.61;100299.59;1748658;81;21063;-72
2022/08/26 13:09:54;;;;;;;4.97;1.90;;;;;;;33.41;19.40;100299.05;1757946;81;21620;-72